Flight Track Log - Related Links

Times and Time Zones

All times are in EDT time to prevent confusion due to time zone crossing. See the UAL3821 flight status page for this flight to view local times or setup timezone preferences in your user account.

Time Position Orientation Groundspeed Altitude Reporting Facility
EDT Latitude Longitude Course Direction KTS MPH feet Rate Location/Type
Wed 11:21:53 PM 40.6333 -74.1833 37° Northeast 189 217 2,400  Level New York TRACON
Wed 11:22:53 PM 40.6667 -74.2333 311° West 253 291 4,300 2,024 Climbing New York TRACON
Wed 11:24:00 PM 40.9929 -73.8238 37° Northeast  Level FlightAware Approximate
Wed 11:24:42 PM 40.7372 -74.1247 49° Northeast 269 310 8,100  Level Boston Center
Wed 11:25:00 PM 41.0731 -73.7346 40° Northeast  Level FlightAware Approximate
Wed 11:25:42 PM 40.7847 -74.0161 60° Northeast 274 315 10,400  Level Boston Center
Wed 11:26:00 PM 41.1562 -73.6514 27° Northeast  Level FlightAware Approximate
Wed 11:26:42 PM 40.8339 -73.9103 58° Northeast 299 344 11,400  Level Boston Center
Wed 11:27:00 PM 41.2305 -73.5695 37° Northeast  Level FlightAware Approximate
Wed 11:27:42 PM 40.8897 -73.7964 57° Northeast 335 386 12,000  Level Boston Center
Wed 11:28:42 PM 40.9411 -73.6792 60° Northeast 357 411 12,100 600 Climbing Boston Center
Wed 11:29:42 PM 41.0128 -73.6036 38° Northeast 363 418 13,200 1,200 Climbing Boston Center
Wed 11:30:42 PM 41.1197 -73.5394 24° Northeast 363 418 14,500 1,250 Climbing Boston Center
Wed 11:31:42 PM 41.2203 -73.4806 24° Northeast 380 437 15,700 1,350 Climbing Boston Center
Wed 11:32:42 PM 41.3167 -73.4183 26° Northeast 380 437 17,200 1,550 Climbing Boston Center
Wed 11:33:42 PM 41.4108 -73.3589 25° Northeast 380 437 18,800 1,400 Climbing Boston Center
Wed 11:34:42 PM 41.5047 -73.3436 North 380 437 20,000 1,350 Climbing Boston Center
Wed 11:35:42 PM 41.6047 -73.3481 358° North 361 415 21,500 1,500 Climbing Boston Center
Wed 11:36:42 PM 41.7047 -73.3467 North 361 415 23,000 1,500 Climbing Boston Center
Wed 11:37:42 PM 41.8069 -73.3481 359° North 361 415 24,500 1,500 Climbing Boston Center
Wed 11:38:42 PM 41.9092 -73.3494 359° North 361 415 26,000 1,250 Climbing Boston Center
Wed 11:39:42 PM 42.0111 -73.3481 North 361 415 27,000 500 Climbing Boston Center
Wed 11:40:42 PM 42.1089 -73.3972 340° North 367 422 27,000  Level Boston Center
Wed 11:41:42 PM 42.2083 -73.4631 334° Northwest 385 443 27,000  Level Boston Center
Wed 11:42:42 PM 42.3119 -73.5239 337° Northwest 391 450 27,000  Level Boston Center
Wed 11:43:42 PM 42.4111 -73.6072 328° Northwest 412 474 27,000  Level Boston Center
Wed 11:44:42 PM 42.5167 -73.6794 333° Northwest 412 474 27,000  Level Boston Center
Wed 11:45:42 PM 42.6158 -73.7519 332° Northwest 412 474 27,000  Level Boston Center
Wed 11:46:42 PM 42.7233 -73.8222 334° Northwest 412 474 27,000  Level Boston Center
Wed 11:47:42 PM 42.8331 -73.8925 335° Northwest 412 474 27,000  Level Boston Center
Wed 11:48:42 PM 42.9361 -73.9658 332° Northwest 417 480 27,000  Level Boston Center
Wed 11:49:42 PM 43.0436 -74.0367 334° Northwest 423 487 27,000  Level Boston Center
Wed 11:50:42 PM 43.1489 -74.1106 333° Northwest 423 487 27,000  Level Boston Center
Wed 11:51:42 PM 43.2519 -74.1847 332° Northwest 423 487 27,000  Level Boston Center
Wed 11:52:42 PM 43.3592 -74.2592 333° Northwest 428 493 27,000  Level Boston Center
Wed 11:53:42 PM 43.4786 -74.3400 334° Northwest 434 499 27,000  Level Boston Center
Wed 11:54:42 PM 43.5839 -74.4119 334° Northwest 429 494 27,000  Level Boston Center
Wed 11:55:42 PM 43.6889 -74.4872 333° Northwest 429 494 27,000  Level Boston Center
Wed 11:56:42 PM 43.7978 -74.5631 333° Northwest 429 494 27,000  Level Boston Center
Wed 11:57:42 PM 43.9006 -74.6386 332° Northwest 429 494 27,000  Level Boston Center
Wed 11:58:42 PM 44.0075 -74.7119 334° Northwest 429 494 27,000 -350 Level Boston Center
Wed 11:59:42 PM 44.1144 -74.7853 334° Northwest 429 494 26,300 -1,650 Descending Boston Center
Thu 12:00:42 AM 44.2192 -74.8619 332° Northwest 429 494 23,700 -2,450 Descending Boston Center
Thu 12:01:42 AM 44.3197 -74.9356 332° Northwest 424 488 21,400 -2,300 Descending Boston Center
Thu 12:02:42 AM 44.4183 -74.9950 337° Northwest 408 470 19,100 -2,000 Descending Boston Center
Thu 12:03:42 AM 44.5172 -75.0489 339° North 387 445 17,400 -1,700 Descending Boston Center
Thu 12:04:42 AM 44.6139 -75.1056 337° Northwest 382 440 15,700 -1,765 Descending Boston Center
Thu 12:05:24 AM 44.6667 -75.1500 329° Northwest 370 426 14,400 -1,765 Descending Montreal Center
Thu 12:06:24 AM 44.7500 -75.1833 344° North 360 414 12,700 -1,750 Descending Montreal Center
Thu 12:07:24 AM 44.8500 -75.2333 340° North 360 414 10,900 -1,250 Descending Montreal Center
Thu 12:08:24 AM 44.9333 -75.3000 330° Northwest 340 391 10,200 -1,250 Descending Montreal Center
Thu 12:09:24 AM 45.0167 -75.3333 344° North 260 299 8,400 -1,900 Descending Montreal Center
Thu 12:10:24 AM 45.0667 -75.3833 325° Northwest 250 288 6,400 -1,750 Descending Montreal Center
Thu 12:11:24 AM 45.1333 -75.4000 350° North 240 276 4,900 -1,200 Descending Montreal Center
Thu 12:12:24 AM 45.1833 -75.4500 325° Northwest 200 230 4,000 -1,050 Descending Montreal Center
Thu 12:13:24 AM 45.2167 -75.5167 305° West 200 230 2,800 -1,100 Descending Montreal Center
Thu 12:14:24 AM 45.2500 -75.5667 313° West 180 207 1,800 -1,000 Descending Montreal Center

Login

Don't have an account? Register now (free) for customized features, flight alerts, and more!